Time;durP1;ratioP1;P1;durP2;ratioP2;P2;SDS_P1;SDS_P2;PMS_P1;PMS_P2;Temp;Humidity;BMP_temperature;BMP_pressure;BME280_temperature;BME280_humidity;BME280_pressure;Samples;Min_cycle;Max_cycle;Signal;HPM_P1;HPM_P2
2022/01/03 00:01:45;;;;;;;;;77.20;65.00;19.30;99.90;;;;;;5020214;28;8743;-70
2022/01/03 00:04:13;;;;;;;;;81.20;68.40;19.30;99.90;;;;;;5020585;28;8731;-70
2022/01/03 00:06:40;;;;;;;;;73.00;56.60;19.30;99.90;;;;;;5020471;28;10150;-70
2022/01/03 00:09:07;;;;;;;;;76.80;62.40;19.30;99.90;;;;;;5020304;28;9234;-70
2022/01/03 00:11:35;;;;;;;;;69.80;58.80;19.30;99.90;;;;;;5019827;28;8779;-70
2022/01/03 00:14:01;;;;;;;;;77.80;60.40;19.30;99.90;;;;;;5018813;28;8782;-70
2022/01/03 00:16:29;;;;;;;;;82.60;71.80;19.40;99.90;;;;;;5019421;28;8840;-70
2022/01/03 00:18:56;;;;;;;;;78.80;68.00;19.40;99.90;;;;;;5020693;28;8740;-71
2022/01/03 00:21:29;;;;;;;;;76.80;61.20;19.50;99.90;;;;;;5019802;28;8854;-71
2022/01/03 00:24:08;;;;;;;;;73.00;57.40;19.50;99.90;;;;;;5020027;28;8778;-71
2022/01/03 00:26:35;;;;;;;;;75.40;58.20;19.40;99.90;;;;;;5018552;28;9897;-71
2022/01/03 00:29:09;;;;;;;;;70.60;53.00;19.40;99.90;;;;;;5018584;28;8870;-71
2022/01/03 00:31:40;;;;;;;;;71.00;55.00;19.40;99.90;;;;;;5002976;28;8743;-71
2022/01/03 00:34:08;;;;;;;;;76.60;60.40;19.40;99.90;;;;;;5020216;28;8786;-72
2022/01/03 00:36:35;;;;;;;;;80.80;69.20;19.50;99.90;;;;;;5018416;28;8828;-71
2022/01/03 00:39:03;;;;;;;;;77.40;64.20;19.40;99.90;;;;;;5019583;28;8762;-72
2022/01/03 00:41:30;;;;;;;;;78.60;63.60;19.50;99.90;;;;;;5019414;28;8771;-71
2022/01/03 00:43:57;;;;;;;;;73.80;59.40;19.50;99.90;;;;;;5019545;28;9017;-70
2022/01/03 00:46:24;;;;;;;;;73.80;57.00;19.60;99.90;;;;;;5019663;28;9396;-71
2022/01/03 00:48:52;;;;;;;;;76.80;62.00;19.70;99.90;;;;;;5018423;28;8759;-70
2022/01/03 00:51:19;;;;;;;;;75.80;63.60;19.80;99.90;;;;;;5019009;28;8741;-68
2022/01/03 00:53:49;;;;;;;;;72.00;59.60;19.70;99.90;;;;;;5059339;28;8854;-69
2022/01/03 00:56:46;;;;;;;;;76.20;61.40;19.80;99.90;;;;;;5049967;28;8789;-69
2022/01/03 00:59:32;;;;;;;;;74.80;60.40;19.90;99.90;;;;;;5058007;28;8773;-70
2022/01/03 01:02:01;;;;;;;;;78.00;61.00;20.00;99.90;;;;;;5057953;28;8814;-70
2022/01/03 01:04:28;;;;;;;;;72.00;56.20;20.20;99.90;;;;;;5058788;28;9970;-69
2022/01/03 01:06:55;;;;;;;;;72.20;55.40;20.30;99.90;;;;;;5059426;28;8729;-70
2022/01/03 01:09:23;;;;;;;;;72.80;57.20;20.40;99.90;;;;;;5058883;28;8895;-69
2022/01/03 01:11:53;;;;;;;;;68.40;53.80;20.50;99.90;;;;;;5057964;28;8777;-70
2022/01/03 01:14:19;;;;;;;;;66.60;52.40;20.50;99.90;;;;;;5058620;28;8745;-69
2022/01/03 01:16:46;;;;;;;;;65.60;52.20;20.60;99.90;;;;;;5058837;28;8832;-70
2022/01/03 01:19:13;;;;;;;;;63.50;50.25;20.70;99.90;;;;;;5074384;28;8835;-70
2022/01/03 01:21:39;;;;;;;;;68.00;52.20;20.70;99.90;;;;;;5057052;28;8753;-70
2022/01/03 01:24:06;;;;;;;;;59.00;48.00;20.80;99.90;;;;;;5041155;28;8761;-70
2022/01/03 01:29:18;;;;;;;;;60.00;48.25;21.00;99.90;;;;;;5058201;28;8797;-68
2022/01/03 01:31:49;;;;;;;;;61.50;49.00;21.00;99.90;;;;;;5057259;28;8904;-70
2022/01/03 01:34:22;;;;;;;;;61.50;48.50;21.00;99.90;;;;;;5058585;28;8734;-70
2022/01/03 01:36:52;;;;;;;;;64.75;50.50;20.90;99.90;;;;;;5058223;28;9406;-70
2022/01/03 01:39:19;;;;;;;;;57.50;48.00;20.90;99.90;;;;;;5057176;28;8754;-69
2022/01/03 01:41:46;;;;;;;;;56.25;44.25;20.70;99.90;;;;;;5040694;28;8765;-70
2022/01/03 01:44:14;;;;;;;;;48.75;39.25;20.70;99.90;;;;;;5073530;28;8956;-70
2022/01/03 01:46:46;;;;;;;;;46.75;39.50;20.80;99.90;;;;;;5058109;28;8730;-70
2022/01/03 01:49:20;;;;;;;;;49.50;38.75;21.00;99.90;;;;;;5056884;28;8757;-70
2022/01/03 01:51:49;;;;;;;;;47.50;39.00;21.30;99.90;;;;;;5018248;28;8739;-69
2022/01/03 01:54:17;;;;;;;;;49.25;39.25;21.40;99.90;;;;;;5017945;28;8767;-70
2022/01/03 01:57:04;;;;;;;;;47.50;38.75;21.50;99.90;;;;;;5018306;28;8777;-69
2022/01/03 02:00:01;;;;;;;;;47.75;38.00;21.50;99.90;;;;;;5016840;28;8876;-69
2022/01/03 02:02:32;;;;;;;;;46.25;37.25;21.50;99.90;;;;;;4997347;28;8798;-70
2022/01/03 02:05:22;;;;;;;;;45.00;37.25;21.50;99.90;;;;;;5017140;28;8782;-70
2022/01/03 02:07:58;;;;;;;;;36.25;32.75;21.70;99.90;;;;;;5016887;28;8811;-69
2022/01/03 02:10:29;;;;;;;;;40.00;34.00;21.70;99.90;;;;;;5017467;28;9573;-69
2022/01/03 02:12:56;;;;;;;;;43.50;35.00;21.90;99.90;;;;;;5018631;28;8759;-70
2022/01/03 02:15:22;;;;;;;;;40.00;34.75;21.90;99.90;;;;;;5016666;28;9522;-69
2022/01/03 02:17:49;;;;;;;;;43.25;35.00;21.80;99.90;;;;;;5017992;28;8807;-70
2022/01/03 02:20:21;;;;;;;;;44.50;36.50;22.10;99.90;;;;;;5017796;28;8882;-70
2022/01/03 02:22:47;;;;;;;;;38.75;33.00;22.20;99.90;;;;;;5000833;28;8766;-69
2022/01/03 02:25:15;;;;;;;;;43.25;35.75;22.30;99.90;;;;;;5018024;28;8893;-70
2022/01/03 02:27:43;;;;;;;;;51.00;42.50;22.50;99.90;;;;;;5017901;28;8743;-70
2022/01/03 02:30:13;;;;;;;;;48.25;39.75;22.60;99.90;;;;;;5017643;28;9023;-70
2022/01/03 02:32:40;;;;;;;;;52.25;41.00;22.40;99.90;;;;;;5017312;28;8767;-70
2022/01/03 02:35:07;;;;;;;;;48.00;38.75;22.10;99.90;;;;;;5017441;28;8771;-70
2022/01/03 02:37:34;;;;;;;;;45.00;35.50;22.20;99.90;;;;;;5017321;28;8739;-69
2022/01/03 02:40:01;;;;;;;;;36.75;31.50;22.40;99.90;;;;;;5018154;28;8791;-70
2022/01/03 02:42:27;;;;;;;;;44.25;35.00;22.50;99.90;;;;;;5017123;28;8775;-69
2022/01/03 02:45:00;;;;;;;;;27.50;23.75;22.50;99.90;;;;;;5017623;28;8809;-70
2022/01/03 02:47:26;;;;;;;;;43.00;36.00;22.60;99.90;;;;;;5017094;28;8782;-69
2022/01/03 02:49:53;;;;;;;;;43.25;36.50;22.80;99.90;;;;;;5026694;28;8785;-70
2022/01/03 02:52:22;;;;;;;;;41.25;36.00;22.90;99.90;;;;;;5057388;28;8783;-70
2022/01/03 02:54:49;;;;;;;;;41.00;35.25;22.90;99.90;;;;;;5055698;28;8796;-72
2022/01/03 02:57:22;;;;;;;;;45.25;35.25;23.00;99.90;;;;;;5057020;28;8788;-70
2022/01/03 02:59:53;;;;;;;;;41.50;35.25;23.10;99.90;;;;;;5056839;28;8847;-70
2022/01/03 03:02:22;;;;;;;;;37.00;32.75;23.30;99.90;;;;;;5056820;28;8730;-69
2022/01/03 03:04:53;;;;;;;;;39.25;34.25;23.50;99.90;;;;;;5055945;28;8777;-70
2022/01/03 03:07:20;;;;;;;;;43.50;35.00;23.60;99.90;;;;;;5056822;28;8714;-69
2022/01/03 03:09:47;;;;;;;;;45.75;38.75;23.60;99.90;;;;;;5056460;28;8827;-70
2022/01/03 03:12:14;;;;;;;;;43.25;34.75;23.50;99.90;;;;;;5072039;28;8853;-71
2022/01/03 03:14:41;;;;;;;;;43.25;34.50;23.60;99.90;;;;;;5056766;28;8762;-71
2022/01/03 03:17:07;;;;;;;;;43.25;37.00;23.70;99.90;;;;;;5056710;28;8754;-70
2022/01/03 03:19:50;;;;;;;;;40.25;34.00;23.80;99.90;;;;;;5056412;28;8762;-70
2022/01/03 03:22:16;;;;;;;;;46.50;35.25;24.00;99.90;;;;;;5057297;28;8742;-72
2022/01/03 03:24:43;;;;;;;;;42.25;35.75;23.90;99.90;;;;;;5038651;28;8861;-71
2022/01/03 03:27:11;;;;;;;;;43.00;34.50;24.00;99.90;;;;;;5056573;28;8880;-71
2022/01/03 03:29:43;;;;;;;;;37.75;33.25;24.30;99.90;;;;;;5056330;28;8852;-71
2022/01/03 03:32:10;;;;;;;;;39.50;33.25;24.40;99.90;;;;;;5056750;28;8770;-70
2022/01/03 03:34:37;;;;;;;;;33.50;32.50;24.40;99.90;;;;;;5058593;28;9054;-70
2022/01/03 03:37:04;;;;;;;;;43.50;33.75;24.30;99.90;;;;;;5059699;28;8804;-70
2022/01/03 03:39:33;;;;;;;;;39.50;34.25;24.50;99.90;;;;;;5060333;28;8766;-70
2022/01/03 03:42:01;;;;;;;;;35.00;32.25;24.80;99.90;;;;;;5060568;28;8819;-71
2022/01/03 03:44:28;;;;;;;;;37.25;31.50;24.60;99.90;;;;;;5060363;28;8848;-70
2022/01/03 03:46:55;;;;;;;;;46.00;36.25;24.80;99.90;;;;;;5060753;28;8753;-71
2022/01/03 03:49:22;;;;;;;;;41.50;35.75;24.90;99.90;;;;;;5075466;28;8861;-70
2022/01/03 03:51:48;;;;;;;;;44.75;37.00;25.20;99.90;;;;;;5059096;28;8758;-69
2022/01/03 03:54:15;;;;;;;;;39.00;33.25;25.00;99.90;;;;;;5059090;28;8863;-70
2022/01/03 03:56:42;;;;;;;;;44.75;35.75;25.10;99.90;;;;;;5060486;28;9217;-71
2022/01/03 03:59:09;;;;;;;;;40.00;34.50;25.30;99.90;;;;;;5059149;28;8774;-71
2022/01/03 04:01:35;;;;;;;;;40.50;34.75;25.30;99.90;;;;;;5059838;28;8758;-70
2022/01/03 04:04:02;;;;;;;;;35.50;32.75;25.40;99.90;;;;;;5060224;28;8734;-70
2022/01/03 04:06:29;;;;;;;;;37.50;30.50;25.60;99.90;;;;;;5051120;28;8752;-70
2022/01/03 04:08:56;;;;;;;;;33.75;31.50;25.60;99.90;;;;;;5059868;28;8746;-70
2022/01/03 04:11:23;;;;;;;;;34.75;31.25;25.60;99.90;;;;;;5059852;28;8726;-70
2022/01/03 04:13:50;;;;;;;;;34.00;30.25;25.70;99.90;;;;;;5074938;28;8843;-70
2022/01/03 04:16:17;;;;;;;;;35.00;30.25;25.90;99.90;;;;;;5060466;28;9391;-70
2022/01/03 04:18:43;;;;;;;;;33.25;29.00;26.00;99.90;;;;;;5059807;28;8729;-70
2022/01/03 04:21:10;;;;;;;;;37.25;31.25;26.10;99.70;;;;;;5059926;28;8761;-70
2022/01/03 04:23:37;;;;;;;;;37.00;31.00;26.20;99.20;;;;;;5059492;28;8772;-69
2022/01/03 04:26:06;;;;;;;;;31.25;29.75;26.30;99.70;;;;;;5060163;28;8811;-69
2022/01/03 04:28:33;;;;;;;;;35.00;31.00;26.50;98.80;;;;;;5059675;28;8766;-69
2022/01/03 04:31:00;;;;;;;;;30.75;28.25;26.50;98.90;;;;;;5060072;28;8778;-70
2022/01/03 04:33:26;;;;;;;;;32.00;30.00;26.60;98.70;;;;;;5059121;28;8786;-69
2022/01/03 04:35:53;;;;;;;;;28.50;26.50;26.50;98.50;;;;;;5074610;28;8954;-69
2022/01/03 04:38:20;;;;;;;;;29.25;26.50;26.50;98.90;;;;;;5059325;28;8782;-68
2022/01/03 04:40:46;;;;;;;;;32.25;27.75;26.60;98.40;;;;;;5059819;28;10002;-69
2022/01/03 04:43:13;;;;;;;;;24.75;24.75;26.70;98.50;;;;;;5060251;28;8846;-70
2022/01/03 04:45:40;;;;;;;;;28.50;24.50;26.80;96.70;;;;;;5058207;28;8845;-70
2022/01/03 04:48:06;;;;;;;;;26.00;24.00;26.60;96.60;;;;;;5058959;28;8777;-69
2022/01/03 04:50:33;;;;;;;;;24.75;24.75;26.60;96.50;;;;;;5058672;28;8793;-69
2022/01/03 04:53:00;;;;;;;;;33.00;26.50;26.70;96.60;;;;;;5057776;28;8742;-70
2022/01/03 04:55:27;;;;;;;;;30.00;26.25;26.70;97.60;;;;;;5047331;28;8744;-69
2022/01/03 04:57:53;;;;;;;;;28.00;25.75;26.90;96.20;;;;;;5058556;28;8837;-70
2022/01/03 05:00:23;;;;;;;;;23.00;21.25;27.00;96.20;;;;;;5058800;28;8778;-70
2022/01/03 05:02:50;;;;;;;;;21.25;20.50;27.10;96.50;;;;;;5059070;28;9434;-69
2022/01/03 05:05:17;;;;;;;;;21.75;21.50;27.20;95.00;;;;;;5074176;28;8777;-67
2022/01/03 05:07:43;;;;;;;;;26.40;25.00;27.20;94.90;;;;;;5058843;28;9936;-70
2022/01/03 05:10:10;;;;;;;;;24.80;21.80;27.40;94.20;;;;;;5059313;28;8821;-71
2022/01/03 05:12:37;;;;;;;;;27.00;24.25;27.30;94.20;;;;;;5057425;28;8766;-70
2022/01/03 05:15:04;;;;;;;;;23.25;22.00;27.30;93.90;;;;;;5058864;28;8843;-71
2022/01/03 05:17:31;;;;;;;;;29.60;23.80;27.20;93.20;;;;;;5058683;28;8871;-70
2022/01/03 05:19:58;;;;;;;;;20.20;20.20;27.20;93.50;;;;;;5059093;28;8742;-70
2022/01/03 05:22:25;;;;;;;;;23.40;21.60;27.20;93.40;;;;;;5058499;28;8766;-69
2022/01/03 05:24:52;;;;;;;;;24.40;21.60;27.40;93.60;;;;;;5057931;28;8730;-70
2022/01/03 05:27:19;;;;;;;;;26.00;24.20;27.60;92.60;;;;;;5058457;28;8726;-67
2022/01/03 05:29:46;;;;;;;;;27.20;25.20;27.70;91.90;;;;;;5058803;28;8869;-70
2022/01/03 05:32:12;;;;;;;;;30.00;24.00;27.70;92.80;;;;;;5058864;28;8766;-69
2022/01/03 05:34:40;;;;;;;;;26.25;25.00;27.90;92.70;;;;;;5058644;28;8860;-69
2022/01/03 05:37:07;;;;;;;;;23.00;20.25;27.90;91.90;;;;;;5059682;28;9445;-70
2022/01/03 05:39:34;;;;;;;;;26.00;24.25;28.00;91.90;;;;;;5058244;28;8773;-70
2022/01/03 05:42:00;;;;;;;;;26.00;22.00;28.00;92.40;;;;;;5058672;28;8823;-69
2022/01/03 05:44:27;;;;;;;;;21.75;21.75;28.00;91.50;;;;;;5058152;28;8780;-70
2022/01/03 05:46:54;;;;;;;;;17.25;17.00;27.90;91.10;;;;;;5058172;28;8804;-69
2022/01/03 05:49:20;;;;;;;;;17.50;17.00;27.80;90.60;;;;;;5058011;28;8738;-70
2022/01/03 05:51:47;;;;;;;;;20.50;19.50;27.80;91.00;;;;;;5056855;28;8730;-69
2022/01/03 05:54:16;;;;;;;;;22.60;19.60;27.90;90.70;;;;;;5058125;28;8758;-69
2022/01/03 05:56:43;;;;;;;;;20.80;18.40;28.10;90.20;;;;;;5057654;28;8726;-69
2022/01/03 05:59:10;;;;;;;;;21.25;19.50;27.90;90.50;;;;;;5058073;28;8815;-69
2022/01/03 06:01:41;;;;;;;;;19.00;17.50;28.10;90.10;;;;;;5056326;28;8864;-69
2022/01/03 06:04:15;;;;;;;;;14.00;12.00;28.20;90.20;;;;;;5058558;28;8766;-69
2022/01/03 06:06:53;;;;;;;;;20.20;16.00;28.40;89.40;;;;;;5056436;28;8737;-69
2022/01/03 06:09:20;;;;;;;;;20.60;17.40;28.50;88.10;;;;;;5040703;28;8800;-69
2022/01/03 06:11:47;;;;;;;;;18.00;17.20;28.60;88.00;;;;;;5057944;28;8762;-70
2022/01/03 06:14:17;;;;;;;;;22.60;20.40;28.70;88.80;;;;;;5057894;28;8804;-70
2022/01/03 06:16:49;;;;;;;;;19.00;18.25;28.70;88.70;;;;;;5057975;28;8799;-70
2022/01/03 06:19:16;;;;;;;;;22.25;18.50;28.70;87.80;;;;;;5073355;28;8742;-70
2022/01/03 06:21:43;;;;;;;;;16.00;15.75;28.80;87.30;;;;;;5057803;28;8830;-70
2022/01/03 06:24:11;;;;;;;;;26.00;21.75;28.70;86.90;;;;;;5057764;28;8761;-70
2022/01/03 06:26:38;;;;;;;;;24.40;22.40;28.60;87.40;;;;;;5057195;28;8746;-69
2022/01/03 06:29:05;;;;;;;;;19.60;18.60;28.30;87.50;;;;;;5057247;28;8730;-70
2022/01/03 06:31:32;;;;;;;;;20.40;18.60;28.40;89.10;;;;;;5055818;28;8774;-70
2022/01/03 06:33:59;;;;;;;;;21.00;19.00;28.50;88.80;;;;;;5057827;28;8788;-70
2022/01/03 06:36:26;;;;;;;;;21.25;20.50;28.70;87.90;;;;;;5057313;28;8721;-70
2022/01/03 06:38:53;;;;;;;;;20.50;17.75;28.90;87.30;;;;;;5057842;28;8741;-69
2022/01/03 06:41:20;;;;;;;;;20.25;19.00;28.90;86.30;;;;;;5057204;28;8726;-67
2022/01/03 06:43:46;;;;;;;;;21.75;20.00;29.00;85.50;;;;;;5057898;28;8737;-70
2022/01/03 06:46:13;;;;;;;;;18.50;18.50;29.00;85.20;;;;;;5073565;28;8792;-69
2022/01/03 06:48:40;;;;;;;;;21.40;21.00;28.90;86.10;;;;;;5056935;28;8806;-70
2022/01/03 06:51:06;;;;;;;;;21.60;20.80;28.60;85.90;;;;;;5056888;28;8786;-69
2022/01/03 06:53:33;;;;;;;;;21.40;19.80;28.50;87.10;;;;;;5056799;28;8790;-69
2022/01/03 06:56:00;;;;;;;;;24.80;21.40;28.30;87.30;;;;;;5057296;28;8783;-69
2022/01/03 06:58:27;;;;;;;;;19.50;17.75;28.40;88.20;;;;;;5056414;28;10057;-69
2022/01/03 07:00:53;;;;;;;;;27.00;23.50;28.40;87.60;;;;;;5058179;28;8785;-71
2022/01/03 07:03:20;;;;;;;;;23.25;19.00;28.30;89.10;;;;;;5055011;28;8766;-69
2022/01/03 07:05:47;;;;;;;;;21.00;19.25;28.00;87.40;;;;;;5057113;28;8799;-70
2022/01/03 07:08:13;;;;;;;;;21.25;19.00;28.20;87.50;;;;;;5056565;28;8781;-69
2022/01/03 07:10:40;;;;;;;;;21.40;20.40;28.30;89.00;;;;;;5055891;28;8773;-70
2022/01/03 07:13:07;;;;;;;;;20.60;20.60;28.20;88.40;;;;;;5055963;28;8757;-70
2022/01/03 07:21:03;;;;;;;;;20.50;18.00;28.40;86.60;;;;;;5056887;28;8746;-70
2022/01/03 07:23:29;;;;;;;;;18.25;16.25;28.40;86.20;;;;;;5056416;28;8839;-69
2022/01/03 07:25:56;;;;;;;;;16.25;16.25;28.40;86.90;;;;;;5056578;28;8782;-70
2022/01/03 07:28:23;;;;;;;;;22.75;20.25;28.60;86.90;;;;;;5055284;28;8816;-70
2022/01/03 07:30:50;;;;;;;;;20.50;18.50;28.80;86.50;;;;;;5056902;28;8806;-70
2022/01/03 07:33:16;;;;;;;;;26.75;21.50;29.00;85.70;;;;;;5056324;28;8832;-70
2022/01/03 07:35:43;;;;;;;;;23.00;21.00;29.10;84.50;;;;;;5056825;28;9386;-70
2022/01/03 07:38:10;;;;;;;;;25.50;22.50;29.10;85.00;;;;;;5055063;28;8768;-70
2022/01/03 07:40:36;;;;;;;;;24.75;22.00;29.10;86.10;;;;;;5056184;28;8769;-69
2022/01/03 07:43:03;;;;;;;;;23.75;20.00;29.20;84.70;;;;;;5056786;28;8754;-70
2022/01/03 07:45:30;;;;;;;;;26.00;23.75;29.30;84.40;;;;;;5056686;28;8766;-69
2022/01/03 07:47:57;;;;;;;;;23.00;21.50;29.30;84.40;;;;;;5056086;28;8788;-71
2022/01/03 07:50:23;;;;;;;;;23.50;21.50;29.20;84.60;;;;;;5056058;28;8912;-69
2022/01/03 07:52:50;;;;;;;;;21.50;18.25;29.20;84.40;;;;;;5056317;28;8777;-70
2022/01/03 07:55:17;;;;;;;;;25.00;22.50;29.10;83.60;;;;;;5055518;28;8750;-68
2022/01/03 07:57:44;;;;;;;;;23.25;20.50;29.00;84.10;;;;;;5055215;28;8754;-70
2022/01/03 08:00:15;;;;;;;;;24.50;22.50;29.10;83.50;;;;;;5056234;28;8769;-70
2022/01/03 08:02:42;;;;;;;;;26.75;21.50;29.10;84.20;;;;;;5055939;28;8843;-69
2022/01/03 08:05:11;;;;;;;;;24.00;22.25;29.10;84.30;;;;;;5054992;28;8839;-69
2022/01/03 08:07:38;;;;;;;;;20.00;18.00;29.20;82.90;;;;;;5055797;28;8797;-70
2022/01/03 08:10:05;;;;;;;;;24.25;21.00;29.30;82.80;;;;;;5055275;28;8804;-69
2022/01/03 08:12:32;;;;;;;;;25.00;21.60;29.40;82.70;;;;;;5055753;28;8872;-69
2022/01/03 08:14:59;;;;;;;;;24.50;20.75;29.30;83.10;;;;;;5056344;28;9489;-69
2022/01/03 08:17:26;;;;;;;;;24.25;21.50;29.30;83.10;;;;;;5055930;28;8754;-69
2022/01/03 08:19:52;;;;;;;;;25.75;24.50;29.20;83.40;;;;;;5055975;28;8777;-69
2022/01/03 08:22:19;;;;;;;;;22.25;18.75;29.30;81.90;;;;;;5058815;28;8762;-69
2022/01/03 08:24:46;;;;;;;;;24.25;22.50;29.20;83.00;;;;;;5058533;28;9403;-69
2022/01/03 08:27:13;;;;;;;;;24.00;19.75;29.10;81.90;;;;;;5059873;28;8871;-70
2022/01/03 08:29:39;;;;;;;;;23.75;23.75;29.10;83.50;;;;;;5059549;28;8931;-69
2022/01/03 08:32:06;;;;;;;;;19.00;18.20;29.20;82.90;;;;;;5059601;28;8785;-70
2022/01/03 08:34:33;;;;;;;;;25.00;22.25;29.30;82.00;;;;;;5058894;28;8749;-69
2022/01/03 08:37:00;;;;;;;;;20.00;19.50;29.20;82.70;;;;;;5059978;28;8722;-70
2022/01/03 08:39:27;;;;;;;;;19.75;18.75;29.20;82.50;;;;;;5057993;28;8839;-68
2022/01/03 08:41:54;;;;;;;;;21.50;19.50;29.40;82.20;;;;;;5059665;28;8760;-70
2022/01/03 08:44:20;;;;;;;;;31.75;29.75;29.40;82.40;;;;;;5058131;28;8761;-69
2022/01/03 08:46:49;;;;;;;;;20.50;20.00;29.40;82.30;;;;;;5059165;28;8738;-69
2022/01/03 08:49:16;;;;;;;;;21.20;21.00;29.50;81.00;;;;;;5059703;28;8880;-70
2022/01/03 08:51:42;;;;;;;;;21.00;17.75;29.20;81.40;;;;;;5058920;28;9204;-70
2022/01/03 08:54:09;;;;;;;;;23.25;20.00;29.20;81.90;;;;;;5058046;28;8722;-70
2022/01/03 08:56:37;;;;;;;;;24.20;21.20;29.20;80.90;;;;;;5058982;28;8770;-69
2022/01/03 08:59:04;;;;;;;;;21.40;18.60;28.90;81.70;;;;;;5059104;28;8769;-69
2022/01/03 09:01:30;;;;;;;;;25.80;21.60;28.50;85.80;;;;;;5057614;28;8766;-69
2022/01/03 09:03:57;;;;;;;;;25.00;21.00;28.60;84.00;;;;;;5059530;28;8884;-70
2022/01/03 09:06:24;;;;;;;;;22.50;20.00;28.50;84.40;;;;;;5058769;28;9126;-69
2022/01/03 09:08:50;;;;;;;;;23.60;21.00;28.60;84.80;;;;;;5059039;28;8789;-69
2022/01/03 09:11:17;;;;;;;;;20.00;18.40;28.80;83.30;;;;;;5059020;28;8793;-69
2022/01/03 09:13:44;;;;;;;;;24.00;21.00;29.00;82.80;;;;;;5059515;28;8812;-69
2022/01/03 09:16:11;;;;;;;;;22.50;20.50;29.10;81.90;;;;;;5075054;28;8765;-70
2022/01/03 09:18:38;;;;;;;;;19.80;18.20;29.20;81.30;;;;;;5057274;28;9053;-70
2022/01/03 09:21:08;;;;;;;;;24.00;19.80;29.30;80.90;;;;;;5058712;28;8785;-70
2022/01/03 09:23:39;;;;;;;;;19.50;16.75;29.30;81.10;;;;;;5057067;28;8757;-70
2022/01/03 09:28:56;;;;;;;;;17.50;16.00;29.30;80.80;;;;;;5058862;28;8777;-69
2022/01/03 09:31:33;;;;;;;;;20.75;20.25;29.40;80.30;;;;;;5056931;28;8817;-69
2022/01/03 09:34:01;;;;;;;;;22.00;20.25;28.80;82.90;;;;;;5059482;28;8762;-69
2022/01/03 09:36:28;;;;;;;;;21.75;18.50;28.70;82.90;;;;;;5058339;28;8782;-69
2022/01/03 09:38:55;;;;;;;;;22.00;21.00;28.90;82.60;;;;;;5058361;28;8859;-70
2022/01/03 09:41:24;;;;;;;;;21.25;20.25;29.00;83.00;;;;;;5058181;28;8880;-69
2022/01/03 09:43:54;;;;;;;;;20.20;18.00;29.00;83.30;;;;;;5057806;28;8749;-69
2022/01/03 09:46:44;;;;;;;;;24.50;22.00;29.00;82.90;;;;;;5058619;28;8733;-70
2022/01/03 09:49:11;;;;;;;;;21.00;19.50;29.00;82.10;;;;;;5039372;28;8793;-70
2022/01/03 09:51:39;;;;;;;;;24.25;22.00;29.10;81.80;;;;;;5037640;28;8804;-69
2022/01/03 09:54:08;;;;;;;;;20.25;18.75;29.10;83.50;;;;;;5053628;28;8768;-70
2022/01/03 09:56:36;;;;;;;;;28.00;23.50;29.00;85.70;;;;;;5038192;28;8776;-70
2022/01/03 09:59:05;;;;;;;;;19.50;19.50;28.90;85.30;;;;;;5037787;28;8748;-70
2022/01/03 10:01:32;;;;;;;;;28.25;22.25;28.90;83.40;;;;;;5037849;28;9440;-69
2022/01/03 10:04:01;;;;;;;;;20.25;19.25;28.90;82.80;;;;;;5054373;28;8769;-70
2022/01/03 10:06:28;;;;;;;;;24.80;21.00;28.80;83.20;;;;;;5057914;28;8843;-70
2022/01/03 10:08:55;;;;;;;;;22.50;20.50;28.90;84.80;;;;;;5057673;28;10035;-70
2022/01/03 10:11:22;;;;;;;;;15.00;15.00;28.80;84.20;;;;;;5055994;28;9429;-70
2022/01/03 10:13:49;;;;;;;;;23.50;20.25;28.70;85.30;;;;;;5057637;28;8772;-70
2022/01/03 10:16:16;;;;;;;;;21.00;20.25;28.50;85.10;;;;;;5057028;28;8753;-70
2022/01/03 10:18:45;;;;;;;;;21.50;21.00;28.40;84.90;;;;;;5057301;28;8769;-70
2022/01/03 10:21:12;;;;;;;;;21.00;20.00;28.30;87.20;;;;;;5057808;28;8777;-70
2022/01/03 10:23:55;;;;;;;;;25.60;21.00;28.30;87.90;;;;;;5056154;28;8773;-70
2022/01/03 10:26:21;;;;;;;;;23.25;21.00;28.30;88.10;;;;;;5040662;28;9263;-70
2022/01/03 10:28:48;;;;;;;;;22.75;21.25;28.10;89.20;;;;;;5057524;28;8795;-70
2022/01/03 10:31:19;;;;;;;;;22.75;22.00;28.00;88.20;;;;;;5057863;28;8797;-70
2022/01/03 10:33:46;;;;;;;;;23.50;21.50;27.90;89.60;;;;;;5057497;28;9453;-70
2022/01/03 10:36:29;;;;;;;;;22.40;21.60;28.00;88.80;;;;;;5057091;28;8774;-70
2022/01/03 10:38:58;;;;;;;;;22.75;18.75;28.00;90.90;;;;;;5072605;28;8757;-70
2022/01/03 10:41:25;;;;;;;;;24.75;22.50;27.90;91.00;;;;;;5057056;28;8847;-69
2022/01/03 10:43:57;;;;;;;;;24.75;20.50;27.80;91.00;;;;;;5056179;28;8856;-70
2022/01/03 10:46:28;;;;;;;;;21.75;20.50;27.70;91.10;;;;;;5039921;28;8749;-69
2022/01/03 10:49:13;;;;;;;;;26.00;24.75;27.70;91.00;;;;;;5057844;28;8789;-70
2022/01/03 10:51:40;;;;;;;;;22.20;20.20;27.60;91.00;;;;;;5041558;28;8815;-70
2022/01/03 10:54:11;;;;;;;;;19.75;18.25;27.50;91.00;;;;;;5046496;28;8832;-70
2022/01/03 10:56:39;;;;;;;;;24.40;22.20;27.40;91.10;;;;;;5056730;28;8785;-69
2022/01/03 10:59:23;;;;;;;;;28.20;25.20;27.30;91.20;;;;;;5056211;28;8789;-70
2022/01/03 11:02:01;;;;;;;;;23.25;23.00;27.20;91.30;;;;;;5057597;28;8746;-69
2022/01/03 11:04:56;;;;;;;;;30.75;24.25;27.10;91.40;;;;;;5037078;28;8863;-69
2022/01/03 11:13:07;;;;;;;;;38.50;29.25;26.80;91.80;;;;;;5037429;28;8729;-69
2022/01/03 11:15:34;;;;;;;;;29.50;28.00;26.80;92.70;;;;;;5036938;28;8772;-69
2022/01/03 11:18:17;;;;;;;;;33.25;30.75;26.70;93.00;;;;;;5045050;28;8782;-69
2022/01/03 11:20:45;;;;;;;;;27.50;25.00;26.60;93.30;;;;;;5071894;28;8754;-69
2022/01/03 11:23:20;;;;;;;;;33.00;27.50;26.60;92.80;;;;;;5056516;28;8774;-69
2022/01/03 11:25:46;;;;;;;;;45.25;37.25;26.50;93.00;;;;;;5055421;28;8777;-70
2022/01/03 11:28:13;;;;;;;;;46.50;37.25;26.50;93.30;;;;;;5057426;28;8758;-70
2022/01/03 11:30:40;;;;;;;;;45.75;37.75;26.40;93.30;;;;;;5055004;28;9536;-69
2022/01/03 11:33:08;;;;;;;;;60.25;42.50;26.30;93.40;;;;;;5055161;28;8778;-70
2022/01/03 11:35:35;;;;;;;;;54.00;43.00;26.20;93.50;;;;;;5055199;28;8754;-70
2022/01/03 11:38:02;;;;;;;;;52.00;40.50;26.20;93.40;;;;;;5038939;28;8773;-69
2022/01/03 11:40:29;;;;;;;;;47.25;36.75;26.20;94.50;;;;;;5054958;28;9176;-69
2022/01/03 11:42:56;;;;;;;;;55.00;42.50;26.10;95.10;;;;;;5056854;28;8753;-70
2022/01/03 11:45:22;;;;;;;;;47.75;39.25;26.10;95.30;;;;;;5056647;28;9434;-70
2022/01/03 11:47:49;;;;;;;;;54.75;42.00;26.00;95.80;;;;;;5056744;28;9512;-70
2022/01/03 11:50:16;;;;;;;;;54.75;44.00;25.90;94.90;;;;;;5038433;28;9123;-69
2022/01/03 11:52:43;;;;;;;;;56.00;44.00;25.90;95.30;;;;;;5054930;28;8731;-69
2022/01/03 11:55:11;;;;;;;;;52.75;44.50;25.80;94.90;;;;;;5058457;28;8742;-69
2022/01/03 12:06:03;;;;;;;;;116.20;92.20;25.70;95.70;;;;;;5060557;28;8770;-70
2022/01/03 12:08:32;;;;;;;;;116.40;96.40;25.60;97.20;;;;;;5060083;28;8784;-70
2022/01/03 12:11:00;;;;;;;;;103.00;85.60;25.40;98.00;;;;;;5060012;28;8754;-69
2022/01/03 12:13:49;;;;;;;;;95.80;77.20;25.40;97.10;;;;;;5060229;28;8734;-69
2022/01/03 12:16:16;;;;;;;;;100.60;83.00;25.40;97.10;;;;;;5061269;28;8753;-69
2022/01/03 12:19:02;;;;;;;;;109.40;89.80;25.50;97.10;;;;;;5060078;28;8812;-70
2022/01/03 12:24:28;;;;;;;;;90.60;74.00;25.30;98.20;;;;;;5060384;28;8773;-70
2022/01/03 12:27:15;;;;;;;;;82.60;69.40;25.20;98.40;;;;;;5060090;28;8766;-70
2022/01/03 12:29:54;;;;;;;;;82.20;74.20;25.30;98.40;;;;;;5043560;28;8827;-70
2022/01/03 12:32:24;;;;;;;;;76.40;67.80;25.40;98.00;;;;;;5074896;28;8777;-68
2022/01/03 12:35:23;;;;;;;;;70.20;52.80;25.20;98.10;;;;;;5059822;28;8766;-69
2022/01/03 12:37:55;;;;;;;;;75.20;57.20;25.10;97.30;;;;;;5059729;28;8757;-69
2022/01/03 12:40:28;;;;;;;;;69.20;54.00;25.10;97.20;;;;;;5058811;28;8753;-70
2022/01/03 12:43:16;;;;;;;;;68.40;53.80;25.00;96.70;;;;;;5075325;28;8773;-69
2022/01/03 12:45:46;;;;;;;;;71.00;54.00;25.10;97.20;;;;;;5059748;28;8745;-69
2022/01/03 12:48:17;;;;;;;;;70.40;54.60;25.20;97.90;;;;;;5059322;28;8784;-69
2022/01/03 12:50:53;;;;;;;;;65.20;51.20;25.00;97.40;;;;;;5058917;28;8770;-69
2022/01/03 12:53:32;;;;;;;;;74.00;55.40;24.80;97.20;;;;;;5059310;28;8876;-68
2022/01/03 12:56:02;;;;;;;;;68.60;55.60;24.90;97.10;;;;;;5059632;28;9393;-69
2022/01/03 12:58:28;;;;;;;;;67.80;52.60;24.90;96.90;;;;;;5059131;28;8825;-69
2022/01/03 13:00:59;;;;;;;;;71.40;55.00;25.10;97.00;;;;;;5059726;28;8753;-70
2022/01/03 13:03:44;;;;;;;;;69.40;55.80;25.00;98.50;;;;;;5058648;28;8758;-69
2022/01/03 13:06:11;;;;;;;;;78.60;61.00;25.00;98.80;;;;;;5058307;28;8742;-70
2022/01/03 13:08:38;;;;;;;;;74.40;60.40;24.90;98.80;;;;;;5058764;28;8773;-69
2022/01/03 13:11:08;;;;;;;;;69.80;52.00;24.90;98.90;;;;;;5057536;28;8774;-69
2022/01/03 13:13:35;;;;;;;;;67.20;52.80;24.80;99.00;;;;;;5058373;28;8766;-69